Time;durP1;ratioP1;P1;durP2;ratioP2;P2;SDS_P1;SDS_P2;PMS_P1;PMS_P2;Temp;Humidity;BMP_temperature;BMP_pressure;BME280_temperature;BME280_humidity;BME280_pressure;Samples;Min_cycle;Max_cycle;Signal;HPM_P1;HPM_P2
2022/12/02 00:00:20;;;;;;;67.40;28.85;;;;;;;3.70;100.00;102751.59;6280969;22;20059;-79
2022/12/02 00:02:47;;;;;;;67.47;30.02;;;;;;;3.72;100.00;102752.03;6280185;22;20066;-80
2022/12/02 00:05:13;;;;;;;74.07;30.95;;;;;;;3.73;100.00;102750.16;6253847;22;20016;-80
2022/12/02 00:07:42;;;;;;;67.65;30.48;;;;;;;3.72;100.00;102751.25;6279878;22;20039;-80
2022/12/02 00:10:30;;;;;;;69.20;30.35;;;;;;;3.71;100.00;102749.72;6254036;22;20016;-80
2022/12/02 00:13:21;;;;;;;67.60;30.25;;;;;;;3.68;100.00;102749.31;6280508;22;20082;-80
2022/12/02 00:16:00;;;;;;;65.70;30.45;;;;;;;3.68;100.00;102748.56;6280203;22;20012;-80
2022/12/02 00:18:27;;;;;;;72.32;29.85;;;;;;;3.69;100.00;102742.19;6281010;22;20020;-80
2022/12/02 00:20:54;;;;;;;67.03;29.13;;;;;;;3.68;100.00;102738.78;6280257;22;20012;-80
2022/12/02 00:23:21;;;;;;;76.80;31.25;;;;;;;3.69;100.00;102739.53;6280425;22;20422;-80
2022/12/02 00:25:50;;;;;;;72.93;31.02;;;;;;;3.69;100.00;102734.28;6279988;22;20018;-80
2022/12/02 00:28:17;;;;;;;67.20;31.55;;;;;;;3.69;100.00;102735.03;6281014;22;20449;-80
2022/12/02 00:30:44;;;;;;;73.70;30.45;;;;;;;3.71;100.00;102739.97;6253072;22;20016;-80
2022/12/02 00:33:10;;;;;;;70.05;29.85;;;;;;;3.70;100.00;102738.44;6227956;22;20020;-80
2022/12/02 00:35:37;;;;;;;69.20;31.13;;;;;;;3.71;100.00;102739.19;6280310;22;20062;-79
2022/12/02 00:38:04;;;;;;;69.10;30.75;;;;;;;3.71;100.00;102739.97;6279776;22;20043;-79
2022/12/02 00:40:31;;;;;;;74.82;31.38;;;;;;;3.72;100.00;102751.25;6280680;22;20449;-79
2022/12/02 00:46:30;;;;;;;66.85;31.02;;;;;;;3.68;100.00;102740.66;6280484;22;20488;-80
2022/12/02 00:48:33;;;;;;;67.25;30.77;;;;;;;3.67;100.00;102729.34;6280386;22;20411;-80
2022/12/02 00:51:00;;;;;;;69.05;29.45;;;;;;;3.68;100.00;102730.88;6279404;22;20790;-81
2022/12/02 00:53:28;;;;;;;67.30;29.85;;;;;;;3.67;100.00;102721.44;6280155;22;20024;-80
2022/12/02 00:55:54;;;;;;;67.95;31.08;;;;;;;3.67;100.00;102716.19;6279676;22;20012;-80
2022/12/02 00:58:21;;;;;;;62.15;29.00;;;;;;;3.68;100.00;102711.66;6280585;22;20016;-80
2022/12/02 01:00:47;;;;;;;74.13;30.35;;;;;;;3.68;100.00;102706.41;6252025;22;20394;-80
2022/12/02 01:03:14;;;;;;;77.38;31.08;;;;;;;3.67;100.00;102713.53;6280519;22;20012;-80
2022/12/02 01:05:41;;;;;;;70.60;31.65;;;;;;;3.65;100.00;102707.84;6279018;22;20008;-80
2022/12/02 01:08:07;;;;;;;64.55;29.25;;;;;;;3.64;100.00;102708.97;6280794;22;20031;-80
2022/12/02 01:10:34;;;;;;;67.20;30.98;;;;;;;3.64;100.00;102708.97;6280384;22;20390;-80
2022/12/02 01:13:01;;;;;;;66.15;29.58;;;;;;;3.64;100.00;102701.06;6280478;22;20015;-80
2022/12/02 01:15:27;;;;;;;69.90;30.92;;;;;;;3.64;100.00;102706.31;6280606;22;20349;-79
2022/12/02 01:17:53;;;;;;;71.63;30.42;;;;;;;3.65;100.00;102704.47;6252216;22;20450;-80
2022/12/02 01:20:20;;;;;;;70.22;30.67;;;;;;;3.64;100.00;102710.84;6278171;22;20457;-79
2022/12/02 01:22:47;;;;;;;71.80;31.23;;;;;;;3.62;100.00;102705.13;6252383;22;20016;-80
2022/12/02 01:25:14;;;;;;;71.25;30.55;;;;;;;3.62;100.00;102711.16;6227657;22;20180;-80
2022/12/02 01:27:40;;;;;;;71.32;30.65;;;;;;;3.62;99.93;102708.53;6279810;22;20020;-80
2022/12/02 01:30:07;;;;;;;65.13;29.50;;;;;;;3.62;100.00;102710.41;6252871;22;20016;-80
2022/12/02 01:32:34;;;;;;;76.20;30.83;;;;;;;3.61;99.79;102707.00;6252376;22;20055;-80
2022/12/02 01:35:00;;;;;;;69.68;30.70;;;;;;;3.62;99.84;102707.78;6251914;22;20012;-79
2022/12/02 01:37:27;;;;;;;67.15;29.70;;;;;;;3.62;99.62;102711.16;6280284;22;20016;-79
2022/12/02 01:39:53;;;;;;;67.57;30.25;;;;;;;3.61;99.63;102708.88;6252455;22;20043;-80
2022/12/02 01:42:20;;;;;;;67.70;28.70;;;;;;;3.60;99.68;102712.63;6280599;22;20019;-79
2022/12/02 01:44:46;;;;;;;67.93;30.02;;;;;;;3.58;99.53;102705.09;6279439;22;20070;-79
2022/12/02 01:47:13;;;;;;;69.55;29.50;;;;;;;3.59;99.64;102703.97;6252924;22;20495;-79
2022/12/02 01:49:40;;;;;;;66.90;29.95;;;;;;;3.58;99.71;102712.22;6279512;22;20024;-79
2022/12/02 01:52:06;;;;;;;63.30;28.77;;;;;;;3.57;99.55;102719.38;6280387;22;20021;-80
2022/12/02 01:54:34;;;;;;;70.50;28.75;;;;;;;3.58;99.66;102712.22;6252551;22;20059;-78
2022/12/02 01:57:02;;;;;;;62.55;29.25;;;;;;;3.57;99.38;102711.47;6280030;22;20075;-79
2022/12/02 01:59:28;;;;;;;63.67;29.13;;;;;;;3.56;99.65;102712.56;6227618;22;20048;-80
2022/12/02 02:01:55;;;;;;;68.35;29.10;;;;;;;3.55;99.44;102712.91;6279654;22;20020;-78
2022/12/02 02:04:22;;;;;;;66.22;28.30;;;;;;;3.54;99.27;102712.16;6252205;22;20027;-79
2022/12/02 02:06:48;;;;;;;63.15;28.02;;;;;;;3.54;99.31;102721.91;6252353;22;20017;-78
2022/12/02 02:09:16;;;;;;;64.00;27.75;;;;;;;3.53;99.32;102723.78;6252428;22;20040;-79
2022/12/02 02:11:42;;;;;;;63.75;26.00;;;;;;;3.50;99.25;102716.56;6278551;22;20135;-79
2022/12/02 02:14:12;;;;;;;61.88;27.35;;;;;;;3.51;99.03;102715.47;6228374;22;20024;-79
2022/12/02 02:16:39;;;;;;;66.35;27.25;;;;;;;3.46;98.75;102713.09;6278592;22;20056;-78
2022/12/02 02:19:11;;;;;;;54.03;25.50;;;;;;;3.46;98.83;102714.97;6252116;22;20016;-78
2022/12/02 02:21:43;;;;;;;66.38;27.40;;;;;;;3.45;98.85;102716.06;6253822;22;20131;-78
2022/12/02 02:24:11;;;;;;;63.67;26.17;;;;;;;3.45;98.62;102708.16;6281242;22;20027;-78
2022/12/02 02:26:38;;;;;;;59.30;25.98;;;;;;;3.44;98.63;102710.03;6253583;22;20082;-79
2022/12/02 02:29:04;;;;;;;58.80;26.77;;;;;;;3.43;98.73;102705.09;6253720;22;20078;-79
2022/12/02 02:31:31;;;;;;;59.60;26.08;;;;;;;3.43;98.85;102707.75;6253662;22;20095;-78
2022/12/02 02:33:59;;;;;;;57.70;24.48;;;;;;;3.40;97.37;102708.44;6280372;22;20095;-79
2022/12/02 02:36:26;;;;;;;51.67;22.05;;;;;;;3.36;96.26;102713.59;6253731;22;20020;-79
2022/12/02 02:38:53;;;;;;;53.75;23.05;;;;;;;3.31;95.80;102709.34;6253453;22;20046;-79
2022/12/02 02:41:19;;;;;;;57.75;22.63;;;;;;;3.31;95.35;102700.69;6253896;22;20012;-79
2022/12/02 02:43:46;;;;;;;56.55;21.33;;;;;;;3.28;94.66;102711.91;6253108;22;20024;-79
2022/12/02 02:46:14;;;;;;;55.80;21.08;;;;;;;3.25;93.87;102702.81;6253964;22;20017;-79
2022/12/02 02:48:42;;;;;;;53.88;21.63;;;;;;;3.22;93.68;102706.13;6279755;22;20022;-79
2022/12/02 02:51:09;;;;;;;54.78;21.55;;;;;;;3.20;93.63;102699.72;6254083;22;20016;-79
2022/12/02 02:53:37;;;;;;;48.88;20.58;;;;;;;3.20;93.37;102702.34;6253003;22;20012;-79
2022/12/02 02:56:06;;;;;;;48.28;21.83;;;;;;;3.18;93.30;102694.03;6281119;22;20022;-79
2022/12/02 02:58:35;;;;;;;61.03;23.17;;;;;;;3.18;93.29;102701.91;6228125;22;20016;-79
2022/12/02 03:01:10;;;;;;;60.33;21.42;;;;;;;3.17;93.15;102688.00;6253217;22;20016;-79
2022/12/02 03:03:45;;;;;;;56.05;21.70;;;;;;;3.15;93.20;102682.31;6252680;22;20024;-80
2022/12/02 03:06:14;;;;;;;51.03;21.33;;;;;;;3.16;93.05;102665.41;6279475;22;20024;-79
2022/12/02 03:08:45;;;;;;;52.97;21.65;;;;;;;3.17;93.13;102666.19;6227690;22;20432;-79
2022/12/02 03:11:12;;;;;;;57.28;23.65;;;;;;;3.16;93.00;102654.88;6281056;22;20498;-79
2022/12/02 03:13:43;;;;;;;56.60;22.38;;;;;;;3.15;92.87;102649.97;6280820;22;20476;-80
2022/12/02 03:16:12;;;;;;;55.13;22.55;;;;;;;3.13;93.02;102657.44;6280757;22;20410;-79
2022/12/02 03:18:42;;;;;;;54.80;21.50;;;;;;;3.13;92.92;102647.66;6252815;22;20012;-79
2022/12/02 03:21:09;;;;;;;55.88;21.80;;;;;;;3.13;92.85;102663.47;6281213;22;20036;-79
2022/12/02 03:23:35;;;;;;;63.05;21.73;;;;;;;3.13;92.93;102662.69;6281007;22;20023;-79
2022/12/02 03:26:03;;;;;;;60.30;21.95;;;;;;;3.13;93.00;102668.72;6280711;22;20028;-79
2022/12/02 03:28:31;;;;;;;54.70;22.25;;;;;;;3.12;92.85;102664.56;6281491;22;20043;-79
2022/12/02 03:30:58;;;;;;;56.03;21.65;;;;;;;3.11;93.01;102657.78;6253355;22;20413;-79
2022/12/02 03:33:26;;;;;;;54.40;22.30;;;;;;;3.13;93.10;102660.81;6253255;22;20047;-79
2022/12/02 03:35:53;;;;;;;56.80;21.58;;;;;;;3.14;93.00;102656.31;6280244;22;20043;-79
2022/12/02 03:38:20;;;;;;;55.10;21.50;;;;;;;3.13;93.05;102654.81;6281194;22;20042;-79
2022/12/02 03:40:47;;;;;;;61.15;22.95;;;;;;;3.13;93.15;102660.06;6280367;22;20012;-79
2022/12/02 03:43:13;;;;;;;53.25;21.58;;;;;;;3.13;92.99;102655.56;6280486;22;20012;-79
2022/12/02 03:45:41;;;;;;;60.42;21.92;;;;;;;3.13;93.00;102654.81;6253209;22;20400;-79
2022/12/02 03:48:10;;;;;;;57.58;20.95;;;;;;;3.13;93.20;102657.44;6253753;22;20360;-79
2022/12/02 03:50:38;;;;;;;60.10;22.60;;;;;;;3.10;92.98;102655.47;6253363;22;20087;-79
2022/12/02 03:53:05;;;;;;;60.65;21.90;;;;;;;3.11;93.39;102646.47;6280320;22;20016;-79
2022/12/02 03:55:31;;;;;;;56.25;20.42;;;;;;;3.10;93.13;102656.25;6253213;22;20051;-79
2022/12/02 03:58:06;;;;;;;54.90;20.38;;;;;;;3.10;93.15;102655.47;6280631;22;20016;-78
2022/12/02 04:00:36;;;;;;;58.67;22.17;;;;;;;3.10;93.30;102655.47;6279799;22;20013;-79
2022/12/02 04:03:04;;;;;;;52.17;21.55;;;;;;;3.10;93.11;102658.88;6227699;22;20019;-79
2022/12/02 04:05:31;;;;;;;54.85;20.73;;;;;;;3.09;93.22;102659.22;6253439;22;20105;-79
2022/12/02 04:07:57;;;;;;;62.25;23.65;;;;;;;3.08;93.04;102652.44;6253339;22;20023;-79
2022/12/02 04:10:24;;;;;;;64.13;24.83;;;;;;;3.05;93.46;102638.06;6253801;22;20070;-79
2022/12/02 04:12:50;;;;;;;61.08;22.55;;;;;;;3.06;93.32;102642.25;6252575;22;20493;-79
2022/12/02 04:15:17;;;;;;;61.10;22.60;;;;;;;3.05;93.31;102638.06;6280335;22;20020;-79
2022/12/02 04:17:43;;;;;;;56.63;21.23;;;;;;;3.05;93.14;102639.94;6280173;22;20016;-79
2022/12/02 04:20:11;;;;;;;66.05;23.45;;;;;;;3.03;93.07;102636.91;6280833;22;20062;-79
2022/12/02 04:22:37;;;;;;;57.33;22.65;;;;;;;3.03;93.47;102627.13;6253032;22;20020;-79
2022/12/02 04:25:04;;;;;;;58.58;22.73;;;;;;;3.04;93.46;102620.00;6252849;22;20024;-79
2022/12/02 04:27:30;;;;;;;69.88;23.02;;;;;;;3.06;93.46;102630.94;6280646;22;20099;-79
2022/12/02 04:29:57;;;;;;;63.00;23.73;;;;;;;3.05;93.40;102622.28;6279058;22;20012;-79
2022/12/02 04:32:23;;;;;;;61.72;23.35;;;;;;;3.07;93.55;102627.22;6281005;22;20047;-79
2022/12/02 04:34:50;;;;;;;59.90;21.52;;;;;;;3.09;93.56;102628.41;6280188;22;20017;-79
2022/12/02 04:37:17;;;;;;;58.60;22.33;;;;;;;3.05;93.44;102619.66;6253747;22;20021;-79
2022/12/02 04:39:43;;;;;;;67.63;22.85;;;;;;;3.05;93.61;102624.94;6252891;22;20016;-79
2022/12/02 04:42:10;;;;;;;59.50;21.40;;;;;;;3.05;93.44;102617.03;6253653;22;20023;-79
2022/12/02 04:44:36;;;;;;;57.75;21.35;;;;;;;3.03;93.36;102616.59;6279297;22;20079;-79
2022/12/02 04:47:03;;;;;;;51.40;21.67;;;;;;;3.02;93.47;102617.72;6253160;22;20074;-79
2022/12/02 04:49:29;;;;;;;49.20;20.70;;;;;;;3.01;93.65;102624.06;6280475;22;20016;-79
2022/12/02 04:51:56;;;;;;;58.38;21.75;;;;;;;3.00;93.64;102618.06;6280516;22;20067;-79
2022/12/02 04:54:23;;;;;;;59.03;21.90;;;;;;;2.99;93.45;102618.38;6280539;22;20031;-80
2022/12/02 04:56:49;;;;;;;64.82;21.63;;;;;;;2.98;93.81;102620.25;6279802;22;20012;-79
2022/12/02 04:59:16;;;;;;;58.92;22.33;;;;;;;2.97;93.71;102617.97;6280101;22;20066;-80
2022/12/02 05:01:42;;;;;;;62.50;21.95;;;;;;;2.97;93.81;102610.84;6279742;22;20056;-80
2022/12/02 05:04:08;;;;;;;61.88;21.33;;;;;;;2.97;93.92;102600.31;6280444;22;20016;-80
2022/12/02 05:06:35;;;;;;;60.08;21.70;;;;;;;2.97;94.01;102600.31;6253097;22;20059;-79
2022/12/02 05:09:02;;;;;;;51.25;20.70;;;;;;;2.98;94.17;102603.72;6252696;22;20022;-79
2022/12/02 05:11:28;;;;;;;60.40;22.30;;;;;;;2.96;94.08;102603.28;6278462;22;20016;-80
2022/12/02 05:14:02;;;;;;;56.65;21.30;;;;;;;2.92;94.11;102597.19;6279651;22;20457;-79
2022/12/02 05:16:28;;;;;;;53.60;20.98;;;;;;;2.93;94.34;102599.47;6280505;22;20441;-79
2022/12/02 05:18:55;;;;;;;56.75;20.77;;;;;;;2.92;94.05;102597.19;6279707;22;20017;-79
2022/12/02 05:21:21;;;;;;;49.65;19.83;;;;;;;2.91;94.33;102593.78;6252992;22;20070;-79
2022/12/02 05:23:48;;;;;;;56.15;21.23;;;;;;;2.92;94.75;102590.03;6279591;22;20016;-78
2022/12/02 05:26:14;;;;;;;56.38;20.40;;;;;;;2.93;94.52;102596.84;6280021;22;20515;-79
2022/12/02 05:28:41;;;;;;;52.05;20.08;;;;;;;2.91;94.37;102593.78;6252501;22;20016;-79
2022/12/02 05:31:07;;;;;;;44.33;18.50;;;;;;;2.89;94.31;102598.63;6280250;22;20023;-81
2022/12/02 05:33:34;;;;;;;53.70;20.45;;;;;;;2.87;94.44;102595.56;6279757;22;20298;-80
2022/12/02 05:36:00;;;;;;;47.88;18.08;;;;;;;2.87;94.66;102597.44;6279761;22;20190;-80
2022/12/02 05:38:26;;;;;;;43.92;17.38;;;;;;;2.85;94.12;102603.03;6279905;22;20023;-80
2022/12/02 05:40:54;;;;;;;43.00;17.35;;;;;;;2.81;93.94;102601.41;6251418;22;20012;-79
2022/12/02 05:43:24;;;;;;;52.75;17.20;;;;;;;2.78;93.34;102608.16;6253076;22;20405;-80
2022/12/02 05:45:55;;;;;;;39.90;16.08;;;;;;;2.74;93.14;102607.31;6251448;22;20024;-80
2022/12/02 05:48:21;;;;;;;42.03;17.93;;;;;;;2.72;92.98;102600.84;6227568;22;20020;-80
2022/12/02 05:50:48;;;;;;;48.15;18.20;;;;;;;2.72;93.26;102604.25;6252486;22;20115;-80
2022/12/02 05:53:22;;;;;;;37.30;16.73;;;;;;;2.70;93.08;102590.66;6252471;22;20028;-80
2022/12/02 05:55:52;;;;;;;44.05;16.65;;;;;;;2.68;92.61;102595.50;6251833;22;20019;-79
2022/12/02 05:58:19;;;;;;;44.70;16.38;;;;;;;2.65;92.24;102596.19;6280049;22;20555;-79
2022/12/02 06:00:53;;;;;;;41.65;15.93;;;;;;;2.62;92.35;102597.63;6279291;22;20016;-79
2022/12/02 06:03:20;;;;;;;42.70;16.92;;;;;;;2.61;92.15;102605.84;6279956;22;20044;-79
2022/12/02 06:05:48;;;;;;;41.95;17.08;;;;;;;2.62;91.99;102595.00;6251901;22;20533;-79
2022/12/02 06:08:24;;;;;;;42.05;16.83;;;;;;;2.62;92.02;102605.50;6252510;22;20012;-80
2022/12/02 06:10:56;;;;;;;41.97;16.50;;;;;;;2.60;91.84;102605.09;6251692;22;20572;-80
2022/12/02 06:13:25;;;;;;;39.70;15.82;;;;;;;2.56;91.44;102601.59;6252808;22;20433;-77
2022/12/02 06:15:52;;;;;;;50.88;16.38;;;;;;;2.55;91.23;102601.94;6252074;22;20750;-78
2022/12/02 06:18:27;;;;;;;32.38;15.55;;;;;;;2.54;91.20;102605.69;6252191;22;20424;-78
2022/12/02 06:21:12;;;;;;;37.78;14.93;;;;;;;2.54;90.96;102603.03;6279003;22;20437;-78
2022/12/02 06:23:44;;;;;;;41.55;16.20;;;;;;;2.53;90.23;102604.91;6279415;22;20028;-78
2022/12/02 06:26:16;;;;;;;34.05;14.75;;;;;;;2.54;89.70;102606.44;6278958;22;20454;-78
2022/12/02 06:28:44;;;;;;;;;;;;;;;2.52;90.50;102608.63;6252589;22;20358;-78
2022/12/02 06:31:17;;;;;;;32.63;13.35;;;;;;;2.49;89.75;102593.53;6279629;22;19920;-78
2022/12/02 06:33:48;;;;;;;35.60;14.07;;;;;;;2.50;89.60;102610.84;6251611;22;20020;-78
2022/12/02 06:36:20;;;;;;;34.00;14.50;;;;;;;2.49;89.40;102608.56;6227032;22;20028;-78
2022/12/02 06:38:53;;;;;;;28.58;14.43;;;;;;;2.45;89.39;102603.19;6278174;22;20038;-78
2022/12/02 06:41:26;;;;;;;34.33;14.13;;;;;;;2.44;89.27;102609.56;6252211;22;20099;-78
2022/12/02 06:46:43;;;;;;;28.00;13.75;;;;;;;2.45;89.75;102611.09;6251497;22;20020;-78
2022/12/02 06:49:19;;;;;;;37.05;14.60;;;;;;;2.46;90.07;102609.22;6251853;22;20048;-78
2022/12/02 06:51:55;;;;;;;31.15;13.52;;;;;;;2.42;89.96;102613.63;6251579;22;20055;-77
2022/12/02 06:54:27;;;;;;;34.42;14.65;;;;;;;2.41;90.15;102609.47;6253444;22;20020;-77
2022/12/02 06:56:56;;;;;;;33.83;14.32;;;;;;;2.38;89.97;102610.16;6253190;22;20020;-78
2022/12/02 06:59:24;;;;;;;34.60;13.52;;;;;;;2.37;90.24;102601.53;6280863;22;20019;-78
2022/12/02 07:01:54;;;;;;;36.60;13.93;;;;;;;2.37;90.07;102613.91;6252299;22;20811;-78
2022/12/02 07:04:40;;;;;;;31.02;13.93;;;;;;;2.36;90.59;102607.88;6253602;22;20020;-78
2022/12/02 07:07:42;;;;;;;34.28;13.73;;;;;;;2.33;90.76;102614.56;6281036;22;20040;-78
2022/12/02 07:10:26;;;;;;;30.10;12.65;;;;;;;2.31;90.91;102622.03;6186424;23;20406;-78
2022/12/02 07:12:56;;;;;;;32.70;13.70;;;;;;;2.29;91.05;102624.22;6185448;23;20017;-78
2022/12/02 07:15:29;;;;;;;32.03;14.07;;;;;;;2.28;91.18;102633.22;6161774;23;20080;-79
2022/12/02 07:17:58;;;;;;;32.08;14.25;;;;;;;2.27;91.25;102621.16;6135957;23;20041;-78
2022/12/02 07:20:37;;;;;;;36.10;13.73;;;;;;;2.26;91.25;102629.38;6186383;23;20511;-78
2022/12/02 07:23:13;;;;;;;23.98;12.70;;;;;;;2.26;91.50;102626.75;6160903;23;20096;-78
2022/12/02 07:25:49;;;;;;;30.20;12.98;;;;;;;2.25;91.54;102619.97;6185932;23;20022;-78
2022/12/02 07:28:32;;;;;;;28.02;12.93;;;;;;;2.23;91.52;102630.06;6161639;23;20018;-78
2022/12/02 07:31:01;;;;;;;30.27;12.25;;;;;;;2.20;91.62;102630.72;6185523;23;20532;-78
2022/12/02 07:33:29;;;;;;;27.77;12.60;;;;;;;2.18;91.89;102628.44;6186415;23;20498;-79
2022/12/02 07:35:55;;;;;;;32.40;14.57;;;;;;;2.18;91.80;102628.44;6185784;23;20542;-78
2022/12/02 07:38:22;;;;;;;32.67;14.10;;;;;;;2.16;92.00;102635.88;6160611;23;20024;-80
2022/12/02 07:41:08;;;;;;;31.92;14.20;;;;;;;2.17;91.96;102640.03;6186419;23;20029;-79
2022/12/02 07:43:37;;;;;;;28.10;13.20;;;;;;;2.16;92.00;102635.88;6184451;22;20020;-79
2022/12/02 07:46:03;;;;;;;38.75;13.20;;;;;;;2.15;91.95;102634.34;6280227;22;20027;-80
2022/12/02 07:48:30;;;;;;;29.10;13.80;;;;;;;2.17;92.16;102628.78;6253162;22;20020;-80
2022/12/02 07:50:56;;;;;;;31.77;13.32;;;;;;;2.17;92.11;102636.66;6253289;22;20020;-79
2022/12/02 07:53:23;;;;;;;29.60;14.13;;;;;;;2.15;92.11;102637.00;6279687;22;20485;-79
2022/12/02 07:55:49;;;;;;;32.17;13.82;;;;;;;2.15;92.32;102631.72;6279644;22;20020;-79
2022/12/02 07:58:16;;;;;;;25.25;12.38;;;;;;;2.14;92.18;102629.44;6280891;22;20020;-79
2022/12/02 08:00:42;;;;;;;32.92;14.98;;;;;;;2.15;92.34;102623.84;6253529;22;20070;-79
2022/12/02 08:03:09;;;;;;;26.50;12.10;;;;;;;2.13;92.37;102625.28;6281297;22;20429;-80
2022/12/02 08:05:35;;;;;;;29.17;13.68;;;;;;;2.13;92.46;102625.28;6280580;22;20137;-80
2022/12/02 08:08:02;;;;;;;32.35;14.30;;;;;;;2.16;92.48;102635.13;6279645;22;20043;-80
2022/12/02 08:10:29;;;;;;;31.33;14.07;;;;;;;2.16;92.80;102632.50;6253043;22;20078;-81
2022/12/02 08:12:55;;;;;;;35.35;14.82;;;;;;;2.15;92.53;102630.97;6251888;22;20012;-80
2022/12/02 08:15:22;;;;;;;30.13;14.38;;;;;;;2.16;92.70;102629.88;6280269;22;20028;-81
2022/12/02 08:17:48;;;;;;;28.65;13.60;;;;;;;2.16;92.61;102637.75;6280684;22;20016;-82
2022/12/02 08:20:15;;;;;;;31.88;14.93;;;;;;;2.15;92.71;102639.63;6280611;22;20012;-80
2022/12/02 08:22:41;;;;;;;34.25;13.65;;;;;;;2.16;92.59;102635.13;6253187;22;20438;-79
2022/12/02 08:25:08;;;;;;;32.67;14.15;;;;;;;2.16;92.78;102637.75;6253307;22;20016;-80
2022/12/02 08:27:38;;;;;;;28.42;12.93;;;;;;;2.16;92.59;102641.16;6253061;22;20095;-81
2022/12/02 08:30:14;;;;;;;31.23;14.00;;;;;;;2.16;92.87;102633.25;6255006;22;20077;-79
2022/12/02 08:32:40;;;;;;;32.00;14.68;;;;;;;2.19;92.86;102634.44;6280470;22;20016;-79
2022/12/02 08:35:07;;;;;;;28.48;13.63;;;;;;;2.21;92.62;102643.53;6280184;22;20092;-80
2022/12/02 08:37:33;;;;;;;31.27;14.20;;;;;;;2.19;92.67;102645.72;6280583;22;20095;-79
2022/12/02 08:40:00;;;;;;;29.40;13.82;;;;;;;2.17;92.71;102647.94;6281052;22;20012;-80
2022/12/02 08:42:26;;;;;;;28.70;14.05;;;;;;;2.17;92.75;102647.94;6280913;22;20164;-79
2022/12/02 08:44:53;;;;;;;30.70;14.02;;;;;;;2.16;92.82;102648.25;6280354;22;20020;-82
2022/12/02 08:47:19;;;;;;;30.95;13.35;;;;;;;2.19;92.77;102648.34;6228274;22;20060;-79
2022/12/02 08:49:46;;;;;;;27.95;13.52;;;;;;;2.21;92.85;102635.66;6280203;22;20019;-80
2022/12/02 08:52:12;;;;;;;27.70;13.13;;;;;;;2.22;92.52;102644.31;6280976;22;20047;-79
2022/12/02 08:54:42;;;;;;;27.27;13.55;;;;;;;2.20;91.94;102634.13;6252979;22;20024;-80
2022/12/02 08:57:08;;;;;;;31.42;13.38;;;;;;;2.19;92.45;102637.84;6280640;22;20463;-79
2022/12/02 08:59:35;;;;;;;29.35;13.07;;;;;;;2.18;92.47;102627.66;6280541;22;20146;-80
2022/12/02 09:02:01;;;;;;;26.80;13.07;;;;;;;2.22;92.38;102633.78;6280931;22;20012;-80
2022/12/02 09:04:28;;;;;;;32.70;14.10;;;;;;;2.25;92.53;102635.75;6280262;22;20047;-80
2022/12/02 09:06:54;;;;;;;29.35;14.82;;;;;;;2.27;92.47;102631.69;6253462;22;20036;-80
2022/12/02 09:09:21;;;;;;;31.23;13.27;;;;;;;2.27;92.12;102636.94;6280976;22;20043;-79
2022/12/02 09:11:47;;;;;;;32.47;13.82;;;;;;;2.28;92.24;102635.06;6280564;22;20043;-79
2022/12/02 09:14:14;;;;;;;32.50;13.38;;;;;;;2.30;92.07;102640.75;6281147;22;20115;-80
2022/12/02 09:16:40;;;;;;;36.28;13.90;;;;;;;2.30;92.00;102638.91;6280094;22;20019;-80
2022/12/02 09:19:07;;;;;;;30.77;12.95;;;;;;;2.29;91.82;102650.50;6252829;22;20023;-80
2022/12/02 09:21:33;;;;;;;31.85;13.70;;;;;;;2.27;91.76;102644.81;6253103;22;20023;-80
2022/12/02 09:24:00;;;;;;;30.75;13.27;;;;;;;2.29;92.25;102640.00;6228171;22;20024;-80
2022/12/02 09:26:26;;;;;;;29.38;14.48;;;;;;;2.33;91.91;102634.84;6280941;22;20055;-81
2022/12/02 09:28:53;;;;;;;28.35;13.90;;;;;;;2.34;91.89;102634.50;6280765;22;20023;-80
2022/12/02 09:31:19;;;;;;;27.15;12.40;;;;;;;2.34;92.07;102636.38;6253191;22;20172;-81
2022/12/02 09:33:46;;;;;;;26.95;12.20;;;;;;;2.36;91.49;102634.16;6279759;22;20103;-80
2022/12/02 09:36:12;;;;;;;31.77;13.70;;;;;;;2.35;91.64;102637.91;6253368;22;20055;-79
2022/12/02 09:38:39;;;;;;;31.90;13.70;;;;;;;2.40;91.79;102619.22;6280318;22;20044;-80
2022/12/02 09:41:06;;;;;;;34.80;13.07;;;;;;;2.46;91.83;102623.13;6253382;22;20016;-80
2022/12/02 09:43:33;;;;;;;27.42;13.73;;;;;;;2.51;91.73;102622.13;6280102;22;20016;-79
2022/12/02 09:46:00;;;;;;;32.15;12.80;;;;;;;2.51;91.36;102628.16;6253439;22;20020;-79
2022/12/02 09:48:28;;;;;;;27.65;13.43;;;;;;;2.50;91.56;102628.47;6279965;22;20016;-78
2022/12/02 09:50:56;;;;;;;27.15;12.77;;;;;;;2.50;91.49;102625.84;6280008;22;20445;-77
2022/12/02 09:53:29;;;;;;;33.08;14.07;;;;;;;2.53;91.28;102609.41;6280428;22;20020;-78
2022/12/02 09:55:58;;;;;;;29.33;12.95;;;;;;;2.60;91.17;102612.22;6280585;22;20461;-83
2022/12/02 09:58:25;;;;;;;27.30;13.18;;;;;;;2.63;91.38;102611.53;6253599;22;20012;-78
2022/12/02 10:00:52;;;;;;;32.42;13.35;;;;;;;2.61;91.04;102617.13;6253087;22;20016;-80
2022/12/02 10:03:24;;;;;;;32.60;13.70;;;;;;;2.59;90.68;102616.72;6279728;22;20020;-80
2022/12/02 10:05:51;;;;;;;32.20;13.27;;;;;;;2.61;90.74;102611.88;6280241;22;20027;-79
2022/12/02 10:08:22;;;;;;;36.95;14.27;;;;;;;2.62;90.63;102610.00;6280513;22;20144;-78
2022/12/02 10:10:49;;;;;;;33.80;14.23;;;;;;;2.64;90.49;102613.06;6252920;22;20513;-78
2022/12/02 10:13:18;;;;;;;27.35;13.38;;;;;;;2.62;90.44;102612.63;6252996;22;20070;-79
2022/12/02 10:15:45;;;;;;;29.05;14.05;;;;;;;2.62;90.20;102617.91;6279831;22;20047;-78
2022/12/02 10:18:16;;;;;;;30.95;13.73;;;;;;;2.58;90.01;102611.78;6252200;22;20028;-80
2022/12/02 10:20:43;;;;;;;35.03;14.43;;;;;;;2.57;90.11;102612.88;6280087;22;20438;-79
2022/12/02 10:23:17;;;;;;;35.28;13.75;;;;;;;2.57;90.03;102607.63;6252953;22;20278;-77
2022/12/02 10:25:49;;;;;;;32.78;14.30;;;;;;;2.58;90.35;102611.78;6252674;22;20135;-78
2022/12/02 10:28:21;;;;;;;31.08;13.40;;;;;;;2.55;90.19;102612.47;6281556;22;20016;-78
2022/12/02 10:30:57;;;;;;;35.95;17.83;;;;;;;2.61;90.33;102608.47;6280415;22;20013;-78
2022/12/02 10:33:28;;;;;;;32.08;14.27;;;;;;;2.63;89.92;102595.75;6254205;22;20024;-78
2022/12/02 10:35:58;;;;;;;29.65;13.88;;;;;;;2.65;89.38;102601.44;6280940;22;20048;-79
2022/12/02 10:38:38;;;;;;;30.00;13.50;;;;;;;2.62;89.58;102605.50;6254512;22;20323;-78
2022/12/02 10:41:14;;;;;;;36.33;13.10;;;;;;;2.64;89.83;102598.06;6253867;22;20083;-79
2022/12/02 10:43:43;;;;;;;34.03;14.90;;;;;;;2.63;89.55;102599.16;6280880;22;20446;-80
2022/12/02 10:46:13;;;;;;;29.70;14.38;;;;;;;2.65;89.58;102594.31;6228625;22;20016;-80
2022/12/02 10:48:41;;;;;;;37.05;14.30;;;;;;;2.65;89.64;102591.69;6281258;22;20031;-81
2022/12/02 10:51:15;;;;;;;36.92;13.63;;;;;;;2.63;89.46;102590.50;6281366;22;20024;-81
2022/12/02 10:53:42;;;;;;;35.35;13.82;;;;;;;2.59;89.49;102593.03;6280992;22;20055;-79
2022/12/02 10:56:16;;;;;;;30.13;12.52;;;;;;;2.58;89.54;102586.25;6282066;22;20204;-80
2022/12/02 10:58:43;;;;;;;37.33;15.13;;;;;;;2.58;89.56;102582.88;6283154;22;20051;-79
2022/12/02 11:01:11;;;;;;;29.33;13.82;;;;;;;2.58;89.35;102588.13;6281821;22;20019;-81
2022/12/02 11:03:39;;;;;;;33.03;14.13;;;;;;;2.56;88.81;102591.09;6282336;22;20083;-80
2022/12/02 11:06:24;;;;;;;40.08;14.55;;;;;;;2.53;89.48;102586.50;6253618;22;20362;-80
2022/12/02 11:08:55;;;;;;;33.15;14.20;;;;;;;2.53;89.50;102581.25;6280923;22;20054;-79
2022/12/02 11:11:42;;;;;;;36.63;14.23;;;;;;;2.54;89.61;102577.53;6281031;22;20445;-83
2022/12/02 11:14:12;;;;;;;27.02;13.35;;;;;;;2.55;89.27;102579.03;6254467;22;20404;-82
2022/12/02 11:16:38;;;;;;;38.15;15.43;;;;;;;2.55;89.26;102589.56;6282326;22;20023;-80
2022/12/02 11:19:39;;;;;;;28.67;11.52;;;;;;;2.55;89.38;102592.19;6282163;22;20541;-80
2022/12/02 11:22:44;;;;;;;36.58;15.10;;;;;;;2.52;89.50;102579.72;6254992;22;20019;-79
2022/12/02 11:25:41;;;;;;;36.72;14.30;;;;;;;2.51;89.51;102585.31;6281608;22;20075;-78
2022/12/02 11:28:27;;;;;;;38.08;13.52;;;;;;;2.49;89.73;102583.03;6281576;22;20016;-79
2022/12/02 11:31:24;;;;;;;30.85;14.10;;;;;;;2.52;90.04;102578.97;6281366;22;20047;-78